createdAt,value
2022-10-11T00:01:51.845Z,14.70
2022-10-11T00:04:31.062Z,15.30
2022-10-11T00:07:07.906Z,13.60
2022-10-11T00:09:42.655Z,15.30
2022-10-11T00:12:19.923Z,13.60
2022-10-11T00:14:54.560Z,13.50
2022-10-11T00:17:29.518Z,13.50
2022-10-11T00:20:04.553Z,14.90
2022-10-11T00:22:42.117Z,15.40
2022-10-11T00:25:19.792Z,15.80
2022-10-11T00:27:55.268Z,13.40
2022-10-11T00:30:29.480Z,15.00
2022-10-11T00:33:03.815Z,15.60
2022-10-11T00:35:41.586Z,13.30
2022-10-11T00:38:17.635Z,13.70
2022-10-11T00:40:51.951Z,13.20
2022-10-11T00:43:28.515Z,15.80
2022-10-11T00:46:08.984Z,15.90
2022-10-11T00:48:46.465Z,15.10
2022-10-11T00:51:39.614Z,13.10
2022-10-11T00:54:26.022Z,13.00
2022-10-11T00:57:03.267Z,13.00
2022-10-11T00:59:44.929Z,15.40
2022-10-11T01:02:33.595Z,12.90
2022-10-11T01:05:28.498Z,16.30
2022-10-11T01:08:07.202Z,13.00
2022-10-11T01:10:44.907Z,14.50
2022-10-11T01:13:38.431Z,13.00
2022-10-11T01:16:16.547Z,13.20
2022-10-11T01:19:02.604Z,16.30
2022-10-11T01:21:43.564Z,13.00
2022-10-11T01:24:40.738Z,13.50
2022-10-11T01:30:40.323Z,13.10
2022-10-11T01:33:30.326Z,13.20
2022-10-11T01:36:09.059Z,15.10
2022-10-11T01:38:46.968Z,14.10
2022-10-11T01:41:27.515Z,15.70
2022-10-11T01:44:03.768Z,12.80
2022-10-11T01:46:39.618Z,15.10
2022-10-11T01:49:14.566Z,13.80
2022-10-11T01:51:53.118Z,15.70
2022-10-11T01:55:10.782Z,12.70
2022-10-11T01:57:49.423Z,12.50
2022-10-11T02:00:40.911Z,15.40
2022-10-11T02:03:24.392Z,12.60
2022-10-11T02:06:11.607Z,14.30
2022-10-11T02:08:54.322Z,12.40
2022-10-11T02:11:33.880Z,12.30
2022-10-11T02:14:18.116Z,12.30
2022-10-11T02:16:56.432Z,12.30
2022-10-11T02:19:39.318Z,14.80
2022-10-11T02:22:18.988Z,12.90
2022-10-11T02:25:19.347Z,14.30
2022-10-11T02:27:57.424Z,12.10
2022-10-11T02:30:33.286Z,12.00
2022-10-11T02:33:15.981Z,12.90
2022-10-11T02:36:11.994Z,12.00
2022-10-11T02:38:54.027Z,12.00
2022-10-11T02:41:34.572Z,12.00
2022-10-11T02:44:34.907Z,13.90
2022-10-11T02:47:20.816Z,12.00
2022-10-11T02:49:57.282Z,11.90
2022-10-11T02:52:51.345Z,12.00
2022-10-11T02:55:29.595Z,12.00
2022-10-11T02:58:08.619Z,13.60
2022-10-11T03:00:44.733Z,13.20
2022-10-11T03:03:23.438Z,14.50
2022-10-11T03:06:00.603Z,11.20
2022-10-11T03:08:48.293Z,10.80
2022-10-11T03:11:29.164Z,12.20
2022-10-11T03:14:17.689Z,12.20
2022-10-11T03:17:30.888Z,12.30
2022-10-11T03:20:07.078Z,12.30
2022-10-11T03:22:41.305Z,12.30
2022-10-11T03:25:38.170Z,12.30
2022-10-11T03:28:13.323Z,12.40
2022-10-11T03:33:43.569Z,12.50
2022-10-11T03:36:19.077Z,12.50
2022-10-11T03:38:55.856Z,12.60
2022-10-11T03:41:35.336Z,12.50
2022-10-11T03:44:14.458Z,15.20
2022-10-11T03:50:10.120Z,12.60
2022-10-11T03:52:45.398Z,14.10
2022-10-11T03:55:21.053Z,12.60
2022-10-11T03:58:11.842Z,12.70
2022-10-11T04:00:52.778Z,14.70
2022-10-11T04:03:33.640Z,12.60
2022-10-11T04:06:17.150Z,12.70
2022-10-11T04:08:51.925Z,12.60
2022-10-11T04:11:27.126Z,12.70
2022-10-11T04:14:04.887Z,12.80
2022-10-11T04:16:47.810Z,14.70
2022-10-11T04:19:23.544Z,12.80
2022-10-11T04:21:58.804Z,12.80
2022-10-11T04:27:25.974Z,13.40
2022-10-11T04:30:11.786Z,12.70
2022-10-11T04:32:51.405Z,12.70
2022-10-11T04:35:26.971Z,12.70
2022-10-11T04:38:02.795Z,12.80
2022-10-11T04:40:40.190Z,15.50
2022-10-11T04:43:17.185Z,14.60
2022-10-11T04:46:02.571Z,15.40
2022-10-11T04:48:38.908Z,12.90
2022-10-11T04:51:26.100Z,13.40
2022-10-11T04:54:02.223Z,12.90
2022-10-11T04:56:44.449Z,13.00
2022-10-11T05:02:19.694Z,12.90
2022-10-11T05:08:48.138Z,12.90
2022-10-11T05:11:25.935Z,12.90
2022-10-11T05:14:05.015Z,12.90
2022-10-11T05:16:40.232Z,12.90
2022-10-11T05:19:22.255Z,14.80
2022-10-11T05:22:02.081Z,13.00
2022-10-11T05:24:52.063Z,13.00
2022-10-11T05:27:39.690Z,13.10
2022-10-11T05:30:17.786Z,13.00
2022-10-11T05:32:53.664Z,13.00
2022-10-11T05:35:30.429Z,10.40
2022-10-11T05:38:06.215Z,15.50
2022-10-11T05:40:44.525Z,15.70
2022-10-11T05:43:20.183Z,13.10
2022-10-11T05:45:56.710Z,15.90
2022-10-11T05:48:32.113Z,15.90
2022-10-11T05:51:18.410Z,16.00
2022-10-11T05:54:00.604Z,13.20
2022-10-11T05:56:40.994Z,13.60
2022-10-11T05:59:15.829Z,13.30
2022-10-11T06:01:50.864Z,15.60
2022-10-11T06:04:28.323Z,12.10
2022-10-11T06:07:15.284Z,14.80
2022-10-11T06:10:21.929Z,13.40
2022-10-11T06:15:59.577Z,13.40
2022-10-11T06:18:37.220Z,13.40
2022-10-11T06:21:19.427Z,14.30
2022-10-11T06:24:04.650Z,13.40
2022-10-11T06:26:45.096Z,13.30
2022-10-11T06:29:37.865Z,14.60
2022-10-11T06:38:29.211Z,16.20
2022-10-11T06:41:26.415Z,13.50
2022-10-11T06:44:01.865Z,14.00
2022-10-11T06:46:43.327Z,13.60
2022-10-11T06:52:28.139Z,13.60
2022-10-11T06:55:02.665Z,13.60
2022-10-11T07:00:56.100Z,13.70
2022-10-11T07:03:38.779Z,13.60
2022-10-11T07:06:27.590Z,15.80
2022-10-11T07:09:03.875Z,14.40
2022-10-11T07:11:56.130Z,15.40
2022-10-11T07:14:44.209Z,13.80
2022-10-11T07:20:23.227Z,13.90
2022-10-11T07:26:03.313Z,17.10
2022-10-11T07:28:40.964Z,16.70
2022-10-11T07:31:32.174Z,15.60
2022-10-11T07:34:07.795Z,14.10
2022-10-11T07:36:42.588Z,16.60
2022-10-11T07:39:24.000Z,16.10
2022-10-11T07:42:34.697Z,13.80
2022-10-11T07:48:08.593Z,13.90
2022-10-11T07:50:45.005Z,13.90
2022-10-11T07:53:21.144Z,14.80
2022-10-11T07:55:55.950Z,13.90
2022-10-11T07:58:33.285Z,16.80
2022-10-11T08:01:09.713Z,14.00
2022-10-11T08:03:48.692Z,14.20
2022-10-11T08:06:26.598Z,17.30
2022-10-11T08:09:05.950Z,14.30
2022-10-11T08:11:41.620Z,14.30
2022-10-11T08:14:27.400Z,14.50
2022-10-11T08:17:13.973Z,14.40
2022-10-11T08:19:51.805Z,14.60
2022-10-11T08:22:26.384Z,14.60
2022-10-11T08:25:01.178Z,14.70
2022-10-11T08:27:37.085Z,17.00
2022-10-11T08:30:25.164Z,14.80
2022-10-11T08:33:06.217Z,14.80
2022-10-11T08:35:47.676Z,15.00
2022-10-11T08:38:23.705Z,16.30
2022-10-11T08:41:24.371Z,15.10
2022-10-11T08:45:08.944Z,16.60
2022-10-11T08:47:40.406Z,15.30
2022-10-11T08:53:35.173Z,15.60
2022-10-11T08:56:22.334Z,15.60
2022-10-11T08:59:06.517Z,15.70
2022-10-11T09:01:55.944Z,15.70
2022-10-11T09:04:33.629Z,15.40
2022-10-11T09:10:42.760Z,17.10
2022-10-11T09:13:31.650Z,15.50
2022-10-11T09:16:15.151Z,15.70
2022-10-11T09:19:20.515Z,16.00
2022-10-11T09:22:04.855Z,15.70
2022-10-11T09:24:51.942Z,15.80
2022-10-11T09:28:02.768Z,15.80
2022-10-11T09:30:51.112Z,15.90
2022-10-11T09:33:34.589Z,15.90
2022-10-11T09:36:20.384Z,15.80
2022-10-11T09:39:05.653Z,15.60
2022-10-11T09:41:57.265Z,17.40
2022-10-11T09:44:43.701Z,16.30
2022-10-11T09:47:28.941Z,17.70
2022-10-11T09:50:14.461Z,18.20
2022-10-11T09:52:53.610Z,16.20
2022-10-11T09:55:35.048Z,15.80
2022-10-11T09:58:29.305Z,15.70
2022-10-11T10:01:24.223Z,15.80
2022-10-11T10:04:12.852Z,15.90
2022-10-11T10:06:49.070Z,15.80
2022-10-11T10:09:29.021Z,16.20
2022-10-11T10:12:19.093Z,15.80
2022-10-11T10:14:59.916Z,15.80
2022-10-11T10:17:39.820Z,15.80
2022-10-11T10:20:37.649Z,18.10
2022-10-11T10:23:33.964Z,15.90
2022-10-11T10:26:41.737Z,16.00
2022-10-11T10:29:30.497Z,16.00
2022-10-11T10:32:29.074Z,16.00
2022-10-11T10:35:20.275Z,16.10
2022-10-11T10:38:26.775Z,17.70
2022-10-11T10:41:06.236Z,16.20
2022-10-11T10:47:12.777Z,16.40
2022-10-11T10:50:05.078Z,16.40
2022-10-11T10:53:33.119Z,16.60
2022-10-11T10:56:23.910Z,16.60
2022-10-11T10:59:22.086Z,16.70
2022-10-11T11:02:16.004Z,17.60
2022-10-11T11:05:21.437Z,16.50
2022-10-11T11:08:04.533Z,16.60
2022-10-11T11:10:47.376Z,17.90
2022-10-11T11:13:41.076Z,16.50
2022-10-11T11:16:37.795Z,16.50
2022-10-11T11:22:57.266Z,16.50
2022-10-11T11:25:45.233Z,16.60
2022-10-11T11:28:48.476Z,16.70
2022-10-11T11:31:56.432Z,16.80
2022-10-11T11:34:41.115Z,16.60
2022-10-11T11:37:31.991Z,16.50
2022-10-11T11:40:15.314Z,16.60
2022-10-11T11:42:58.593Z,15.50
2022-10-11T11:45:41.125Z,16.50
2022-10-11T11:48:34.293Z,17.60
2022-10-11T11:51:13.729Z,16.70
2022-10-11T11:53:59.899Z,17.30
2022-10-11T11:56:44.088Z,16.80
2022-10-11T12:03:00.050Z,17.00
2022-10-11T12:15:00.512Z,16.30
2022-10-11T12:18:28.889Z,18.00
2022-10-11T12:24:27.275Z,17.50
2022-10-11T12:44:40.240Z,17.90
2022-10-11T12:47:36.847Z,17.60
2022-10-11T12:50:26.984Z,17.40
2022-10-11T12:53:07.459Z,17.50
2022-10-11T12:56:12.111Z,18.70
2022-10-11T12:58:54.553Z,17.40
2022-10-11T13:01:56.764Z,17.30
2022-10-11T13:04:50.990Z,19.80
2022-10-11T13:07:48.383Z,19.00
2022-10-11T13:14:35.591Z,17.20
2022-10-11T13:17:31.415Z,17.20
2022-10-11T13:20:27.964Z,17.30
2022-10-11T13:23:37.189Z,16.10
2022-10-11T13:26:54.957Z,17.00
2022-10-11T13:29:47.205Z,17.00
2022-10-11T13:32:33.326Z,16.90
2022-10-11T13:38:32.741Z,17.00
2022-10-11T13:41:27.415Z,16.80
2022-10-11T13:44:06.041Z,16.60
2022-10-11T13:46:47.230Z,16.40
2022-10-11T13:52:42.132Z,16.60
2022-10-11T13:55:29.683Z,16.50
2022-10-11T13:58:18.523Z,16.70
2022-10-11T14:00:56.009Z,16.80
2022-10-11T14:03:54.613Z,18.10
2022-10-11T14:06:50.135Z,16.70
2022-10-11T14:09:29.242Z,16.70
2022-10-11T14:12:40.405Z,16.70
2022-10-11T14:15:25.871Z,19.10
2022-10-11T14:18:03.045Z,16.90
2022-10-11T14:20:40.890Z,16.90
2022-10-11T14:23:19.996Z,16.80
2022-10-11T14:25:54.410Z,16.90
2022-10-11T14:28:29.083Z,19.10
2022-10-11T14:31:03.995Z,16.90
2022-10-11T14:33:43.837Z,19.00
2022-10-11T14:36:20.941Z,16.70
2022-10-11T14:38:56.422Z,18.70
2022-10-11T14:41:30.617Z,17.90
2022-10-11T14:44:13.782Z,18.40
2022-10-11T14:46:49.346Z,16.50
2022-10-11T14:49:29.513Z,16.50
2022-10-11T14:52:19.988Z,16.40
2022-10-11T14:54:55.473Z,16.60
2022-10-11T14:57:41.046Z,16.50
2022-10-11T15:00:26.264Z,16.40
2022-10-11T15:03:03.542Z,16.30
2022-10-11T15:05:39.272Z,16.30
2022-10-11T15:08:33.725Z,16.20
2022-10-11T15:11:15.124Z,16.10
2022-10-11T15:13:53.733Z,16.20
2022-10-11T15:16:28.868Z,16.20
2022-10-11T15:19:03.492Z,17.50
2022-10-11T15:21:38.529Z,18.70
2022-10-11T15:24:14.757Z,17.50
2022-10-11T15:26:51.703Z,16.00
2022-10-11T15:29:26.074Z,16.10
2022-10-11T15:32:01.594Z,17.00
2022-10-11T15:34:37.018Z,16.40
2022-10-11T15:37:13.847Z,16.50
2022-10-11T15:39:58.497Z,16.20
2022-10-11T15:48:24.775Z,15.90
2022-10-11T15:51:03.243Z,15.90
2022-10-11T15:53:41.192Z,15.70
2022-10-11T15:56:37.156Z,15.70
2022-10-11T15:59:26.647Z,18.00
2022-10-11T16:02:02.988Z,17.20
2022-10-11T16:04:37.556Z,15.80
2022-10-11T16:10:02.227Z,17.00
2022-10-11T16:12:40.605Z,16.60
2022-10-11T16:15:23.561Z,17.20
2022-10-11T16:18:03.185Z,15.70
2022-10-11T16:20:42.734Z,16.60
2022-10-11T16:23:25.901Z,16.50
2022-10-11T16:26:08.785Z,16.90
2022-10-11T16:32:36.855Z,17.50
2022-10-11T16:35:18.580Z,15.30
2022-10-11T16:37:53.104Z,15.20
2022-10-11T16:40:33.633Z,15.20
2022-10-11T16:43:20.109Z,12.70
2022-10-11T16:45:58.220Z,15.00
2022-10-11T16:48:49.555Z,16.50
2022-10-11T16:51:26.849Z,14.80
2022-10-11T16:54:01.825Z,14.70
2022-10-11T16:56:39.926Z,17.00
2022-10-11T16:59:20.665Z,14.60
2022-10-11T17:01:55.820Z,14.60
2022-10-11T17:04:35.126Z,17.30
2022-10-11T17:07:13.923Z,17.20
2022-10-11T17:09:51.037Z,14.60
2022-10-11T17:12:26.545Z,14.60
2022-10-11T17:15:05.495Z,14.50
2022-10-11T17:17:43.141Z,16.00
2022-10-11T17:20:20.737Z,14.60
2022-10-11T17:22:56.179Z,14.50
2022-10-11T17:25:31.175Z,16.70
2022-10-11T17:28:07.211Z,16.10
2022-10-11T17:30:43.244Z,14.50
2022-10-11T17:33:29.601Z,16.00
2022-10-11T17:36:28.738Z,14.50
2022-10-11T17:39:06.195Z,14.40
2022-10-11T17:41:45.709Z,16.40
2022-10-11T17:44:22.563Z,14.50
2022-10-11T17:46:57.475Z,16.90
2022-10-11T17:49:32.464Z,16.20
2022-10-11T17:52:10.245Z,14.40
2022-10-11T17:54:44.939Z,17.10
2022-10-11T17:57:20.330Z,14.40
2022-10-11T17:59:58.639Z,14.40
2022-10-11T18:02:33.615Z,14.40
2022-10-11T18:05:14.718Z,14.50
2022-10-11T18:07:57.917Z,14.30
2022-10-11T18:10:47.610Z,15.40
2022-10-11T18:13:26.546Z,14.40
2022-10-11T18:16:02.800Z,14.40
2022-10-11T18:18:59.585Z,15.40
2022-10-11T18:24:43.046Z,14.40
2022-10-11T18:27:19.990Z,14.40
2022-10-11T18:32:48.396Z,16.00
2022-10-11T18:35:25.271Z,14.20
2022-10-11T18:38:05.016Z,15.50
2022-10-11T18:40:55.124Z,14.10
2022-10-11T18:43:33.857Z,13.40
2022-10-11T18:46:13.697Z,13.90
2022-10-11T18:48:50.956Z,13.90
2022-10-11T18:51:27.210Z,13.20
2022-10-11T18:54:02.418Z,14.20
2022-10-11T18:57:02.270Z,16.20
2022-10-11T19:02:26.323Z,13.80
2022-10-11T19:05:01.358Z,15.70
2022-10-11T19:07:40.499Z,16.50
2022-10-11T19:10:29.039Z,13.80
2022-10-11T19:13:15.034Z,13.80
2022-10-11T19:15:50.182Z,13.90
2022-10-11T19:18:27.693Z,15.00
2022-10-11T19:21:09.169Z,13.90
2022-10-11T19:23:54.555Z,14.90
2022-10-11T19:26:34.014Z,13.80
2022-10-11T19:29:15.479Z,14.20
2022-10-11T19:31:53.071Z,15.10
2022-10-11T19:34:39.229Z,15.40
2022-10-11T19:37:16.298Z,13.60
2022-10-11T19:39:54.521Z,14.90
2022-10-11T19:42:30.344Z,16.10
2022-10-11T19:45:20.905Z,13.50
2022-10-11T19:50:46.200Z,13.30
2022-10-11T19:53:20.512Z,15.50
2022-10-11T19:55:55.411Z,15.50
2022-10-11T19:58:31.519Z,16.50
2022-10-11T20:01:10.026Z,16.50
2022-10-11T20:03:44.985Z,14.60
2022-10-11T20:06:20.660Z,13.30
2022-10-11T20:09:23.969Z,13.50
2022-10-11T20:11:51.067Z,13.40
2022-10-11T20:14:25.447Z,13.40
2022-10-11T20:17:01.072Z,13.40
2022-10-11T20:19:35.171Z,14.60
2022-10-11T20:22:09.224Z,15.30
2022-10-11T20:24:43.443Z,14.90
2022-10-11T20:27:18.105Z,13.50
2022-10-11T20:29:53.082Z,13.40
2022-10-11T20:32:29.249Z,15.60
2022-10-11T20:35:04.359Z,15.30
2022-10-11T20:37:38.871Z,14.30
2022-10-11T20:40:14.396Z,15.90
2022-10-11T20:42:48.611Z,13.50
2022-10-11T20:45:22.954Z,15.50
2022-10-11T20:47:58.679Z,16.10
2022-10-11T20:50:32.908Z,16.40
2022-10-11T20:53:07.019Z,13.60
2022-10-11T20:55:41.362Z,12.80
2022-10-11T20:58:20.142Z,15.40
2022-10-11T21:00:54.521Z,13.50
2022-10-11T21:03:30.276Z,15.00
2022-10-11T21:06:04.641Z,13.50
2022-10-11T21:08:44.257Z,15.20
2022-10-11T21:11:19.250Z,13.50
2022-10-11T21:13:55.727Z,13.60
2022-10-11T21:16:30.333Z,13.50
2022-10-11T21:19:13.661Z,13.50
2022-10-11T21:21:53.346Z,13.80
2022-10-11T21:24:28.117Z,15.20
2022-10-11T21:27:02.704Z,13.90
2022-10-11T21:29:38.276Z,15.60
2022-10-11T21:32:14.534Z,13.30
2022-10-11T21:34:51.158Z,13.40
2022-10-11T21:37:26.398Z,13.40
2022-10-11T21:40:01.754Z,13.40
2022-10-11T21:42:38.393Z,13.50
2022-10-11T21:45:13.882Z,12.60
2022-10-11T21:47:48.364Z,13.30
2022-10-11T21:50:24.012Z,15.50
2022-10-11T21:52:58.254Z,13.40
2022-10-11T21:55:32.480Z,15.10
2022-10-11T21:58:07.436Z,12.90
2022-10-11T22:00:41.624Z,13.70
2022-10-11T22:03:16.860Z,13.30
2022-10-11T22:05:52.495Z,16.40
2022-10-11T22:08:26.853Z,14.60
2022-10-11T22:11:01.728Z,13.30
2022-10-11T22:13:36.229Z,13.40
2022-10-11T22:16:12.495Z,15.50
2022-10-11T22:18:46.883Z,13.40
2022-10-11T22:21:24.142Z,13.40
2022-10-11T22:23:58.633Z,13.40
2022-10-11T22:26:35.778Z,16.40
2022-10-11T22:29:10.240Z,14.60
2022-10-11T22:31:44.417Z,12.30
2022-10-11T22:34:19.950Z,16.00
2022-10-11T22:36:55.395Z,13.50
2022-10-11T22:39:30.695Z,16.50
2022-10-11T22:42:05.173Z,13.40
2022-10-11T22:44:39.404Z,13.40
2022-10-11T22:47:14.132Z,14.90
2022-10-11T22:49:48.451Z,13.30
2022-10-11T22:52:24.184Z,13.50
2022-10-11T22:54:58.565Z,15.90
2022-10-11T22:57:35.643Z,15.30
2022-10-11T23:00:11.870Z,13.80
2022-10-11T23:02:46.321Z,13.40
2022-10-11T23:05:26.949Z,15.60
2022-10-11T23:08:04.739Z,13.40
2022-10-11T23:10:39.380Z,15.30
2022-10-11T23:13:13.386Z,13.40
2022-10-11T23:15:48.312Z,13.40
2022-10-11T23:18:22.484Z,13.30
2022-10-11T23:20:56.723Z,14.20
2022-10-11T23:23:32.327Z,15.40
2022-10-11T23:26:08.670Z,13.70
2022-10-11T23:28:43.836Z,13.30
2022-10-11T23:31:20.600Z,15.00
2022-10-11T23:33:54.897Z,13.10
2022-10-11T23:36:32.441Z,15.20
2022-10-11T23:39:09.259Z,13.20
2022-10-11T23:41:43.896Z,13.20
2022-10-11T23:44:18.316Z,13.30
2022-10-11T23:46:52.625Z,15.10
2022-10-11T23:49:34.274Z,15.60
2022-10-11T23:52:08.651Z,13.20
2022-10-11T23:54:44.678Z,13.20
2022-10-11T23:57:19.097Z,13.20
2022-10-11T23:59:53.388Z,13.10
